sensor_id;sensor_type;location;lat;lon;timestamp;P1;durP1;ratioP1;P2;durP2;ratioP2
56267;SDS011;42175;46.930;9.532;2023-08-17T00:01:40;7.65;;;2.90;;
56267;SDS011;42175;46.930;9.532;2023-08-17T00:04:06;6.95;;;2.30;;
56267;SDS011;42175;46.930;9.532;2023-08-17T00:06:33;13.60;;;2.85;;
56267;SDS011;42175;46.930;9.532;2023-08-17T00:08:59;9.18;;;2.90;;
56267;SDS011;42175;46.930;9.532;2023-08-17T00:11:24;14.20;;;3.03;;
56267;SDS011;42175;46.930;9.532;2023-08-17T00:13:50;5.43;;;2.28;;
56267;SDS011;42175;46.930;9.532;2023-08-17T00:16:16;7.70;;;2.53;;
56267;SDS011;42175;46.930;9.532;2023-08-17T00:18:42;10.55;;;3.65;;
56267;SDS011;42175;46.930;9.532;2023-08-17T00:21:08;10.57;;;3.28;;
56267;SDS011;42175;46.930;9.532;2023-08-17T00:23:34;5.65;;;2.63;;
56267;SDS011;42175;46.930;9.532;2023-08-17T00:26:00;7.20;;;2.55;;
56267;SDS011;42175;46.930;9.532;2023-08-17T00:28:26;8.15;;;2.47;;
56267;SDS011;42175;46.930;9.532;2023-08-17T00:30:52;14.98;;;2.78;;
56267;SDS011;42175;46.930;9.532;2023-08-17T00:33:17;15.40;;;2.78;;
56267;SDS011;42175;46.930;9.532;2023-08-17T00:35:43;3.97;;;2.50;;
56267;SDS011;42175;46.930;9.532;2023-08-17T00:38:11;8.82;;;2.55;;
56267;SDS011;42175;46.930;9.532;2023-08-17T00:40:37;5.40;;;2.55;;
56267;SDS011;42175;46.930;9.532;2023-08-17T00:43:03;9.50;;;2.70;;
56267;SDS011;42175;46.930;9.532;2023-08-17T00:45:30;6.18;;;2.15;;
56267;SDS011;42175;46.930;9.532;2023-08-17T00:47:57;12.90;;;2.40;;
56267;SDS011;42175;46.930;9.532;2023-08-17T00:50:24;5.90;;;2.70;;
56267;SDS011;42175;46.930;9.532;2023-08-17T00:52:53;3.47;;;2.20;;
56267;SDS011;42175;46.930;9.532;2023-08-17T00:55:20;5.68;;;2.72;;
56267;SDS011;42175;46.930;9.532;2023-08-17T00:57:46;7.25;;;2.35;;
56267;SDS011;42175;46.930;9.532;2023-08-17T01:00:13;3.72;;;2.28;;
56267;SDS011;42175;46.930;9.532;2023-08-17T01:02:39;8.07;;;2.53;;
56267;SDS011;42175;46.930;9.532;2023-08-17T01:05:06;5.82;;;2.42;;
56267;SDS011;42175;46.930;9.532;2023-08-17T01:07:32;9.13;;;2.80;;
56267;SDS011;42175;46.930;9.532;2023-08-17T01:09:58;7.18;;;2.22;;
56267;SDS011;42175;46.930;9.532;2023-08-17T01:12:29;5.05;;;2.45;;
56267;SDS011;42175;46.930;9.532;2023-08-17T01:17:29;11.45;;;3.20;;
56267;SDS011;42175;46.930;9.532;2023-08-17T01:20:03;4.90;;;2.13;;
56267;SDS011;42175;46.930;9.532;2023-08-17T01:22:30;11.98;;;3.03;;
56267;SDS011;42175;46.930;9.532;2023-08-17T01:24:58;5.90;;;2.05;;
56267;SDS011;42175;46.930;9.532;2023-08-17T01:27:24;5.63;;;2.78;;
56267;SDS011;42175;46.930;9.532;2023-08-17T01:29:53;11.45;;;2.45;;
56267;SDS011;42175;46.930;9.532;2023-08-17T01:32:26;10.38;;;2.85;;
56267;SDS011;42175;46.930;9.532;2023-08-17T01:35:11;7.10;;;2.60;;
56267;SDS011;42175;46.930;9.532;2023-08-17T01:37:47;7.40;;;2.70;;
56267;SDS011;42175;46.930;9.532;2023-08-17T01:40:18;7.50;;;2.70;;
56267;SDS011;42175;46.930;9.532;2023-08-17T01:42:44;7.03;;;2.70;;
56267;SDS011;42175;46.930;9.532;2023-08-17T01:45:11;8.00;;;3.20;;
56267;SDS011;42175;46.930;9.532;2023-08-17T01:47:37;9.25;;;3.10;;
56267;SDS011;42175;46.930;9.532;2023-08-17T01:50:03;5.63;;;2.70;;
56267;SDS011;42175;46.930;9.532;2023-08-17T01:52:29;12.07;;;2.58;;
56267;SDS011;42175;46.930;9.532;2023-08-17T01:54:55;4.63;;;2.38;;
56267;SDS011;42175;46.930;9.532;2023-08-17T01:57:20;7.10;;;2.50;;
56267;SDS011;42175;46.930;9.532;2023-08-17T01:59:46;3.95;;;2.65;;
56267;SDS011;42175;46.930;9.532;2023-08-17T02:02:12;5.55;;;2.67;;
56267;SDS011;42175;46.930;9.532;2023-08-17T02:04:40;5.93;;;2.10;;
56267;SDS011;42175;46.930;9.532;2023-08-17T02:07:05;6.65;;;2.63;;
56267;SDS011;42175;46.930;9.532;2023-08-17T02:09:31;5.40;;;2.63;;
56267;SDS011;42175;46.930;9.532;2023-08-17T02:11:57;6.13;;;2.47;;
56267;SDS011;42175;46.930;9.532;2023-08-17T02:14:23;5.60;;;2.50;;
56267;SDS011;42175;46.930;9.532;2023-08-17T02:16:49;16.15;;;3.15;;
56267;SDS011;42175;46.930;9.532;2023-08-17T02:19:15;5.43;;;2.35;;
56267;SDS011;42175;46.930;9.532;2023-08-17T02:21:41;8.38;;;2.60;;
56267;SDS011;42175;46.930;9.532;2023-08-17T02:24:06;7.40;;;2.60;;
56267;SDS011;42175;46.930;9.532;2023-08-17T02:26:32;9.05;;;2.78;;
56267;SDS011;42175;46.930;9.532;2023-08-17T02:28:58;5.00;;;2.70;;
56267;SDS011;42175;46.930;9.532;2023-08-17T02:31:24;6.63;;;2.10;;
56267;SDS011;42175;46.930;9.532;2023-08-17T02:33:49;7.82;;;2.58;;
56267;SDS011;42175;46.930;9.532;2023-08-17T02:36:15;3.60;;;2.30;;
56267;SDS011;42175;46.930;9.532;2023-08-17T02:38:41;12.95;;;3.50;;
56267;SDS011;42175;46.930;9.532;2023-08-17T02:41:07;4.43;;;2.53;;
56267;SDS011;42175;46.930;9.532;2023-08-17T02:43:32;7.60;;;2.47;;
56267;SDS011;42175;46.930;9.532;2023-08-17T02:45:58;5.18;;;2.22;;
56267;SDS011;42175;46.930;9.532;2023-08-17T02:48:24;3.92;;;2.53;;
56267;SDS011;42175;46.930;9.532;2023-08-17T02:50:50;5.85;;;2.38;;
56267;SDS011;42175;46.930;9.532;2023-08-17T02:53:16;3.55;;;2.45;;
56267;SDS011;42175;46.930;9.532;2023-08-17T02:55:42;9.00;;;2.78;;
56267;SDS011;42175;46.930;9.532;2023-08-17T02:58:07;8.15;;;2.72;;
56267;SDS011;42175;46.930;9.532;2023-08-17T03:00:34;4.65;;;2.50;;
56267;SDS011;42175;46.930;9.532;2023-08-17T03:02:59;10.65;;;2.90;;
56267;SDS011;42175;46.930;9.532;2023-08-17T03:05:25;5.30;;;2.45;;
56267;SDS011;42175;46.930;9.532;2023-08-17T03:07:51;7.13;;;2.38;;
56267;SDS011;42175;46.930;9.532;2023-08-17T03:10:17;6.32;;;3.00;;
56267;SDS011;42175;46.930;9.532;2023-08-17T03:12:42;5.68;;;2.35;;
56267;SDS011;42175;46.930;9.532;2023-08-17T03:15:08;8.57;;;3.03;;
56267;SDS011;42175;46.930;9.532;2023-08-17T03:17:34;4.63;;;2.15;;
56267;SDS011;42175;46.930;9.532;2023-08-17T03:20:00;8.65;;;2.92;;
56267;SDS011;42175;46.930;9.532;2023-08-17T03:22:26;8.13;;;2.60;;
56267;SDS011;42175;46.930;9.532;2023-08-17T03:24:51;4.80;;;2.28;;
56267;SDS011;42175;46.930;9.532;2023-08-17T03:27:20;5.57;;;2.35;;
56267;SDS011;42175;46.930;9.532;2023-08-17T03:29:46;4.40;;;2.20;;
56267;SDS011;42175;46.930;9.532;2023-08-17T03:32:12;7.32;;;3.10;;
56267;SDS011;42175;46.930;9.532;2023-08-17T03:34:37;6.43;;;2.53;;
56267;SDS011;42175;46.930;9.532;2023-08-17T03:37:04;6.63;;;2.85;;
56267;SDS011;42175;46.930;9.532;2023-08-17T03:39:30;10.85;;;2.53;;
56267;SDS011;42175;46.930;9.532;2023-08-17T03:41:56;4.10;;;2.17;;
56267;SDS011;42175;46.930;9.532;2023-08-17T03:44:22;7.07;;;2.40;;
56267;SDS011;42175;46.930;9.532;2023-08-17T03:46:47;4.43;;;2.40;;
56267;SDS011;42175;46.930;9.532;2023-08-17T03:49:13;5.03;;;2.38;;
56267;SDS011;42175;46.930;9.532;2023-08-17T03:51:39;8.32;;;2.38;;
56267;SDS011;42175;46.930;9.532;2023-08-17T03:54:05;4.22;;;2.15;;
56267;SDS011;42175;46.930;9.532;2023-08-17T03:56:31;6.88;;;2.30;;
56267;SDS011;42175;46.930;9.532;2023-08-17T03:58:57;7.00;;;2.30;;
56267;SDS011;42175;46.930;9.532;2023-08-17T04:01:22;6.00;;;2.47;;
56267;SDS011;42175;46.930;9.532;2023-08-17T04:03:48;5.20;;;2.70;;
56267;SDS011;42175;46.930;9.532;2023-08-17T04:06:14;5.10;;;2.42;;
56267;SDS011;42175;46.930;9.532;2023-08-17T04:08:40;6.20;;;2.10;;
56267;SDS011;42175;46.930;9.532;2023-08-17T04:11:05;6.22;;;2.35;;
56267;SDS011;42175;46.930;9.532;2023-08-17T04:13:31;4.43;;;2.40;;
56267;SDS011;42175;46.930;9.532;2023-08-17T04:15:57;3.15;;;2.28;;
56267;SDS011;42175;46.930;9.532;2023-08-17T04:18:23;4.55;;;2.60;;
56267;SDS011;42175;46.930;9.532;2023-08-17T04:20:49;6.38;;;2.33;;
56267;SDS011;42175;46.930;9.532;2023-08-17T04:23:15;6.22;;;2.47;;
56267;SDS011;42175;46.930;9.532;2023-08-17T04:25:41;6.20;;;2.78;;
56267;SDS011;42175;46.930;9.532;2023-08-17T04:28:08;9.70;;;2.50;;
56267;SDS011;42175;46.930;9.532;2023-08-17T04:30:34;9.88;;;2.47;;
56267;SDS011;42175;46.930;9.532;2023-08-17T04:33:00;4.13;;;2.40;;
56267;SDS011;42175;46.930;9.532;2023-08-17T04:35:26;7.72;;;2.40;;
56267;SDS011;42175;46.930;9.532;2023-08-17T04:37:52;8.30;;;2.80;;
56267;SDS011;42175;46.930;9.532;2023-08-17T04:40:17;4.80;;;2.28;;
56267;SDS011;42175;46.930;9.532;2023-08-17T04:42:43;5.25;;;2.30;;
56267;SDS011;42175;46.930;9.532;2023-08-17T04:45:09;26.05;;;3.38;;
56267;SDS011;42175;46.930;9.532;2023-08-17T04:47:35;4.20;;;2.35;;
56267;SDS011;42175;46.930;9.532;2023-08-17T04:50:01;7.95;;;2.55;;
56267;SDS011;42175;46.930;9.532;2023-08-17T04:52:26;4.30;;;2.40;;
56267;SDS011;42175;46.930;9.532;2023-08-17T04:54:52;5.43;;;2.22;;
56267;SDS011;42175;46.930;9.532;2023-08-17T04:57:18;3.47;;;2.25;;
56267;SDS011;42175;46.930;9.532;2023-08-17T04:59:44;10.90;;;2.80;;
56267;SDS011;42175;46.930;9.532;2023-08-17T05:02:10;7.63;;;2.88;;
56267;SDS011;42175;46.930;9.532;2023-08-17T05:04:36;6.13;;;2.10;;
56267;SDS011;42175;46.930;9.532;2023-08-17T05:07:01;14.70;;;2.40;;
56267;SDS011;42175;46.930;9.532;2023-08-17T05:09:27;8.20;;;2.88;;
56267;SDS011;42175;46.930;9.532;2023-08-17T05:11:53;3.25;;;2.03;;
56267;SDS011;42175;46.930;9.532;2023-08-17T05:14:19;6.55;;;2.25;;
56267;SDS011;42175;46.930;9.532;2023-08-17T05:16:45;9.93;;;2.83;;
56267;SDS011;42175;46.930;9.532;2023-08-17T05:19:11;4.30;;;2.28;;
56267;SDS011;42175;46.930;9.532;2023-08-17T05:21:36;7.60;;;2.17;;
56267;SDS011;42175;46.930;9.532;2023-08-17T05:24:02;9.30;;;2.70;;
56267;SDS011;42175;46.930;9.532;2023-08-17T05:26:29;9.95;;;2.35;;
56267;SDS011;42175;46.930;9.532;2023-08-17T05:28:55;5.65;;;2.78;;
56267;SDS011;42175;46.930;9.532;2023-08-17T05:31:21;3.38;;;2.15;;
56267;SDS011;42175;46.930;9.532;2023-08-17T05:33:47;5.32;;;2.17;;
56267;SDS011;42175;46.930;9.532;2023-08-17T05:36:12;6.35;;;2.70;;
56267;SDS011;42175;46.930;9.532;2023-08-17T05:38:39;8.93;;;2.67;;
56267;SDS011;42175;46.930;9.532;2023-08-17T05:41:05;6.78;;;2.40;;
56267;SDS011;42175;46.930;9.532;2023-08-17T05:43:31;7.85;;;3.25;;
56267;SDS011;42175;46.930;9.532;2023-08-17T05:45:57;4.63;;;2.50;;
56267;SDS011;42175;46.930;9.532;2023-08-17T05:48:24;9.98;;;2.90;;
56267;SDS011;42175;46.930;9.532;2023-08-17T05:50:50;8.82;;;2.70;;
56267;SDS011;42175;46.930;9.532;2023-08-17T05:53:16;6.35;;;2.30;;
56267;SDS011;42175;46.930;9.532;2023-08-17T05:55:41;7.25;;;2.72;;
56267;SDS011;42175;46.930;9.532;2023-08-17T05:58:07;5.65;;;2.65;;
56267;SDS011;42175;46.930;9.532;2023-08-17T06:00:33;9.13;;;2.47;;
56267;SDS011;42175;46.930;9.532;2023-08-17T06:03:00;5.90;;;2.70;;
56267;SDS011;42175;46.930;9.532;2023-08-17T06:05:26;6.15;;;2.90;;
56267;SDS011;42175;46.930;9.532;2023-08-17T06:07:54;8.05;;;3.13;;
56267;SDS011;42175;46.930;9.532;2023-08-17T06:10:20;11.65;;;3.50;;
56267;SDS011;42175;46.930;9.532;2023-08-17T06:12:51;23.10;;;4.00;;
56267;SDS011;42175;46.930;9.532;2023-08-17T06:15:17;11.75;;;3.55;;
56267;SDS011;42175;46.930;9.532;2023-08-17T06:17:43;10.93;;;3.88;;
56267;SDS011;42175;46.930;9.532;2023-08-17T06:20:09;16.88;;;3.70;;
56267;SDS011;42175;46.930;9.532;2023-08-17T06:22:35;5.60;;;3.58;;
56267;SDS011;42175;46.930;9.532;2023-08-17T06:25:01;10.00;;;3.63;;
56267;SDS011;42175;46.930;9.532;2023-08-17T06:27:28;11.88;;;3.67;;
56267;SDS011;42175;46.930;9.532;2023-08-17T06:29:54;14.88;;;5.25;;
56267;SDS011;42175;46.930;9.532;2023-08-17T06:32:20;10.52;;;3.50;;
56267;SDS011;42175;46.930;9.532;2023-08-17T06:34:46;7.43;;;3.53;;
56267;SDS011;42175;46.930;9.532;2023-08-17T06:37:12;4.32;;;2.95;;
56267;SDS011;42175;46.930;9.532;2023-08-17T06:39:37;9.38;;;2.97;;
56267;SDS011;42175;46.930;9.532;2023-08-17T06:42:03;6.22;;;3.28;;
56267;SDS011;42175;46.930;9.532;2023-08-17T06:44:30;6.88;;;3.20;;
56267;SDS011;42175;46.930;9.532;2023-08-17T06:46:56;6.60;;;3.20;;
56267;SDS011;42175;46.930;9.532;2023-08-17T06:49:23;5.82;;;3.10;;
56267;SDS011;42175;46.930;9.532;2023-08-17T06:51:49;5.50;;;3.40;;
56267;SDS011;42175;46.930;9.532;2023-08-17T06:54:15;5.25;;;3.20;;
56267;SDS011;42175;46.930;9.532;2023-08-17T06:56:41;9.52;;;3.25;;
56267;SDS011;42175;46.930;9.532;2023-08-17T06:59:07;7.88;;;3.45;;
56267;SDS011;42175;46.930;9.532;2023-08-17T07:01:33;5.65;;;3.15;;
56267;SDS011;42175;46.930;9.532;2023-08-17T07:03:58;9.65;;;4.13;;
56267;SDS011;42175;46.930;9.532;2023-08-17T07:06:24;6.63;;;3.85;;
56267;SDS011;42175;46.930;9.532;2023-08-17T07:08:50;12.93;;;3.17;;
56267;SDS011;42175;46.930;9.532;2023-08-17T07:11:17;7.28;;;3.40;;
56267;SDS011;42175;46.930;9.532;2023-08-17T07:13:44;9.35;;;3.30;;
56267;SDS011;42175;46.930;9.532;2023-08-17T07:16:09;5.88;;;3.53;;
56267;SDS011;42175;46.930;9.532;2023-08-17T07:18:35;10.20;;;3.63;;
56267;SDS011;42175;46.930;9.532;2023-08-17T07:21:01;7.03;;;3.38;;
56267;SDS011;42175;46.930;9.532;2023-08-17T07:23:27;11.98;;;3.90;;
56267;SDS011;42175;46.930;9.532;2023-08-17T07:25:52;5.07;;;3.10;;
56267;SDS011;42175;46.930;9.532;2023-08-17T07:28:19;6.22;;;3.13;;
56267;SDS011;42175;46.930;9.532;2023-08-17T07:30:44;10.65;;;3.60;;
56267;SDS011;42175;46.930;9.532;2023-08-17T07:33:10;7.82;;;3.30;;
56267;SDS011;42175;46.930;9.532;2023-08-17T07:35:36;9.20;;;3.97;;
56267;SDS011;42175;46.930;9.532;2023-08-17T07:38:02;11.95;;;3.38;;
56267;SDS011;42175;46.930;9.532;2023-08-17T07:40:28;7.18;;;3.40;;
56267;SDS011;42175;46.930;9.532;2023-08-17T07:42:53;9.10;;;3.75;;
56267;SDS011;42175;46.930;9.532;2023-08-17T07:45:19;13.73;;;4.00;;
56267;SDS011;42175;46.930;9.532;2023-08-17T07:47:45;9.70;;;3.90;;
56267;SDS011;42175;46.930;9.532;2023-08-17T07:50:12;7.35;;;3.38;;
56267;SDS011;42175;46.930;9.532;2023-08-17T07:52:38;8.57;;;3.55;;
56267;SDS011;42175;46.930;9.532;2023-08-17T07:55:04;5.25;;;3.70;;
56267;SDS011;42175;46.930;9.532;2023-08-17T07:57:30;6.75;;;3.50;;
56267;SDS011;42175;46.930;9.532;2023-08-17T07:59:56;20.90;;;3.85;;
56267;SDS011;42175;46.930;9.532;2023-08-17T08:02:22;5.78;;;3.40;;
56267;SDS011;42175;46.930;9.532;2023-08-17T08:04:47;8.95;;;3.50;;
56267;SDS011;42175;46.930;9.532;2023-08-17T08:07:13;6.28;;;3.70;;
56267;SDS011;42175;46.930;9.532;2023-08-17T08:09:39;7.50;;;4.18;;
56267;SDS011;42175;46.930;9.532;2023-08-17T08:12:05;7.38;;;3.13;;
56267;SDS011;42175;46.930;9.532;2023-08-17T08:14:32;4.93;;;3.50;;
56267;SDS011;42175;46.930;9.532;2023-08-17T08:16:59;5.32;;;3.33;;
56267;SDS011;42175;46.930;9.532;2023-08-17T08:19:24;6.97;;;3.50;;
56267;SDS011;42175;46.930;9.532;2023-08-17T08:21:50;9.85;;;3.28;;
56267;SDS011;42175;46.930;9.532;2023-08-17T08:24:16;5.85;;;3.55;;
56267;SDS011;42175;46.930;9.532;2023-08-17T08:26:42;10.88;;;3.60;;
56267;SDS011;42175;46.930;9.532;2023-08-17T08:29:08;12.77;;;4.18;;
56267;SDS011;42175;46.930;9.532;2023-08-17T08:31:34;5.43;;;3.45;;
56267;SDS011;42175;46.930;9.532;2023-08-17T08:33:59;9.40;;;3.88;;
56267;SDS011;42175;46.930;9.532;2023-08-17T08:36:25;6.43;;;3.40;;
56267;SDS011;42175;46.930;9.532;2023-08-17T08:38:51;9.15;;;3.97;;
56267;SDS011;42175;46.930;9.532;2023-08-17T08:41:17;9.15;;;3.92;;
56267;SDS011;42175;46.930;9.532;2023-08-17T08:43:44;14.10;;;4.85;;
56267;SDS011;42175;46.930;9.532;2023-08-17T08:46:10;11.27;;;3.60;;
56267;SDS011;42175;46.930;9.532;2023-08-17T08:48:38;11.48;;;3.78;;
56267;SDS011;42175;46.930;9.532;2023-08-17T08:51:05;8.80;;;3.30;;
56267;SDS011;42175;46.930;9.532;2023-08-17T08:53:37;5.72;;;3.08;;
56267;SDS011;42175;46.930;9.532;2023-08-17T08:56:04;6.53;;;3.50;;
56267;SDS011;42175;46.930;9.532;2023-08-17T08:58:35;8.88;;;3.92;;
56267;SDS011;42175;46.930;9.532;2023-08-17T09:01:02;5.28;;;3.80;;
56267;SDS011;42175;46.930;9.532;2023-08-17T09:03:29;10.93;;;4.30;;
56267;SDS011;42175;46.930;9.532;2023-08-17T09:05:57;7.93;;;3.78;;
56267;SDS011;42175;46.930;9.532;2023-08-17T09:08:25;12.98;;;5.15;;
56267;SDS011;42175;46.930;9.532;2023-08-17T09:10:53;9.13;;;3.60;;
56267;SDS011;42175;46.930;9.532;2023-08-17T09:13:19;10.15;;;3.90;;
56267;SDS011;42175;46.930;9.532;2023-08-17T09:15:45;15.85;;;4.32;;
56267;SDS011;42175;46.930;9.532;2023-08-17T09:18:11;5.35;;;3.67;;
56267;SDS011;42175;46.930;9.532;2023-08-17T09:20:40;7.65;;;3.90;;
56267;SDS011;42175;46.930;9.532;2023-08-17T09:23:12;13.60;;;3.90;;
56267;SDS011;42175;46.930;9.532;2023-08-17T09:25:40;6.70;;;4.05;;
56267;SDS011;42175;46.930;9.532;2023-08-17T09:28:07;11.48;;;3.90;;
56267;SDS011;42175;46.930;9.532;2023-08-17T09:30:50;12.63;;;4.80;;
56267;SDS011;42175;46.930;9.532;2023-08-17T09:33:26;5.18;;;3.45;;
56267;SDS011;42175;46.930;9.532;2023-08-17T09:38:22;9.18;;;3.95;;
56267;SDS011;42175;46.930;9.532;2023-08-17T09:40:48;5.55;;;4.00;;
56267;SDS011;42175;46.930;9.532;2023-08-17T09:43:15;10.60;;;4.10;;
56267;SDS011;42175;46.930;9.532;2023-08-17T09:45:45;12.80;;;4.15;;
56267;SDS011;42175;46.930;9.532;2023-08-17T09:48:18;4.93;;;3.42;;
56267;SDS011;42175;46.930;9.532;2023-08-17T09:50:45;11.65;;;3.97;;
56267;SDS011;42175;46.930;9.532;2023-08-17T09:53:15;8.73;;;3.63;;
56267;SDS011;42175;46.930;9.532;2023-08-17T09:55:43;13.88;;;4.30;;
56267;SDS011;42175;46.930;9.532;2023-08-17T09:58:10;15.65;;;3.85;;
56267;SDS011;42175;46.930;9.532;2023-08-17T10:00:46;15.35;;;4.75;;
56267;SDS011;42175;46.930;9.532;2023-08-17T10:03:14;13.35;;;4.28;;
56267;SDS011;42175;46.930;9.532;2023-08-17T10:05:42;12.93;;;4.80;;
56267;SDS011;42175;46.930;9.532;2023-08-17T10:08:09;9.93;;;4.13;;
56267;SDS011;42175;46.930;9.532;2023-08-17T10:10:38;12.40;;;4.22;;
56267;SDS011;42175;46.930;9.532;2023-08-17T10:13:10;11.50;;;4.60;;
56267;SDS011;42175;46.930;9.532;2023-08-17T10:15:44;7.35;;;3.97;;
56267;SDS011;42175;46.930;9.532;2023-08-17T10:18:38;10.18;;;4.00;;
56267;SDS011;42175;46.930;9.532;2023-08-17T10:21:23;9.32;;;4.68;;
56267;SDS011;42175;46.930;9.532;2023-08-17T10:23:57;15.00;;;4.32;;
56267;SDS011;42175;46.930;9.532;2023-08-17T10:26:23;11.55;;;4.45;;
56267;SDS011;42175;46.930;9.532;2023-08-17T10:28:51;12.23;;;4.53;;
56267;SDS011;42175;46.930;9.532;2023-08-17T10:31:17;9.35;;;4.10;;
56267;SDS011;42175;46.930;9.532;2023-08-17T10:33:43;14.68;;;4.25;;
56267;SDS011;42175;46.930;9.532;2023-08-17T10:36:12;10.07;;;4.60;;
56267;SDS011;42175;46.930;9.532;2023-08-17T10:38:39;11.32;;;4.85;;
56267;SDS011;42175;46.930;9.532;2023-08-17T10:41:12;14.32;;;4.55;;
56267;SDS011;42175;46.930;9.532;2023-08-17T10:43:57;15.27;;;4.25;;
56267;SDS011;42175;46.930;9.532;2023-08-17T10:46:33;10.52;;;4.45;;
56267;SDS011;42175;46.930;9.532;2023-08-17T10:49:02;10.30;;;4.40;;
56267;SDS011;42175;46.930;9.532;2023-08-17T10:51:35;8.05;;;4.25;;
56267;SDS011;42175;46.930;9.532;2023-08-17T10:54:02;10.30;;;5.07;;
56267;SDS011;42175;46.930;9.532;2023-08-17T10:56:29;19.50;;;5.28;;
56267;SDS011;42175;46.930;9.532;2023-08-17T10:59:01;11.85;;;4.95;;
56267;SDS011;42175;46.930;9.532;2023-08-17T11:01:35;12.88;;;4.93;;
56267;SDS011;42175;46.930;9.532;2023-08-17T11:06:41;6.72;;;3.78;;
56267;SDS011;42175;46.930;9.532;2023-08-17T11:09:11;7.75;;;4.32;;
56267;SDS011;42175;46.930;9.532;2023-08-17T11:11:37;6.47;;;4.05;;
56267;SDS011;42175;46.930;9.532;2023-08-17T11:14:03;16.98;;;3.90;;
56267;SDS011;42175;46.930;9.532;2023-08-17T11:16:29;11.18;;;3.58;;
56267;SDS011;42175;46.930;9.532;2023-08-17T11:18:55;8.63;;;3.72;;
56267;SDS011;42175;46.930;9.532;2023-08-17T11:21:24;9.38;;;4.45;;
56267;SDS011;42175;46.930;9.532;2023-08-17T11:23:50;9.73;;;4.85;;
56267;SDS011;42175;46.930;9.532;2023-08-17T11:26:16;16.42;;;4.40;;
56267;SDS011;42175;46.930;9.532;2023-08-17T11:28:43;10.65;;;4.65;;
56267;SDS011;42175;46.930;9.532;2023-08-17T11:31:10;8.93;;;4.45;;
56267;SDS011;42175;46.930;9.532;2023-08-17T11:33:38;6.05;;;4.20;;
56267;SDS011;42175;46.930;9.532;2023-08-17T11:36:05;11.98;;;4.53;;
56267;SDS011;42175;46.930;9.532;2023-08-17T11:40:59;5.32;;;4.18;;
56267;SDS011;42175;46.930;9.532;2023-08-17T11:43:30;15.65;;;4.40;;
56267;SDS011;42175;46.930;9.532;2023-08-17T11:45:57;4.70;;;4.10;;
56267;SDS011;42175;46.930;9.532;2023-08-17T11:48:24;6.68;;;4.03;;
56267;SDS011;42175;46.930;9.532;2023-08-17T11:50:51;5.32;;;3.58;;
56267;SDS011;42175;46.930;9.532;2023-08-17T11:53:17;6.55;;;4.07;;
56267;SDS011;42175;46.930;9.532;2023-08-17T11:55:43;8.90;;;4.07;;
56267;SDS011;42175;46.930;9.532;2023-08-17T11:58:09;12.55;;;3.83;;
56267;SDS011;42175;46.930;9.532;2023-08-17T12:00:35;7.30;;;3.60;;
56267;SDS011;42175;46.930;9.532;2023-08-17T12:03:12;6.07;;;3.88;;
56267;SDS011;42175;46.930;9.532;2023-08-17T12:05:39;8.35;;;3.92;;
56267;SDS011;42175;46.930;9.532;2023-08-17T12:08:06;7.38;;;3.80;;
56267;SDS011;42175;46.930;9.532;2023-08-17T12:10:33;10.93;;;4.57;;
56267;SDS011;42175;46.930;9.532;2023-08-17T12:13:00;8.38;;;4.28;;
56267;SDS011;42175;46.930;9.532;2023-08-17T12:15:35;13.95;;;5.00;;
56267;SDS011;42175;46.930;9.532;2023-08-17T12:18:04;7.15;;;3.97;;
56267;SDS011;42175;46.930;9.532;2023-08-17T12:20:32;15.40;;;4.40;;
56267;SDS011;42175;46.930;9.532;2023-08-17T12:23:01;6.45;;;4.57;;
56267;SDS011;42175;46.930;9.532;2023-08-17T12:25:27;10.63;;;4.50;;
56267;SDS011;42175;46.930;9.532;2023-08-17T12:27:53;10.05;;;4.78;;
56267;SDS011;42175;46.930;9.532;2023-08-17T12:30:28;9.45;;;4.72;;
56267;SDS011;42175;46.930;9.532;2023-08-17T12:32:57;13.45;;;4.70;;
56267;SDS011;42175;46.930;9.532;2023-08-17T12:35:24;10.85;;;4.82;;
56267;SDS011;42175;46.930;9.532;2023-08-17T12:37:54;9.27;;;3.90;;
56267;SDS011;42175;46.930;9.532;2023-08-17T12:40:20;11.15;;;4.00;;
56267;SDS011;42175;46.930;9.532;2023-08-17T12:42:47;8.95;;;4.97;;
56267;SDS011;42175;46.930;9.532;2023-08-17T12:45:13;6.28;;;4.38;;
56267;SDS011;42175;46.930;9.532;2023-08-17T12:47:40;7.32;;;4.50;;
56267;SDS011;42175;46.930;9.532;2023-08-17T12:50:06;7.40;;;4.43;;
56267;SDS011;42175;46.930;9.532;2023-08-17T12:52:32;7.57;;;4.38;;
56267;SDS011;42175;46.930;9.532;2023-08-17T12:54:58;7.90;;;4.32;;
56267;SDS011;42175;46.930;9.532;2023-08-17T12:57:24;11.43;;;4.78;;
56267;SDS011;42175;46.930;9.532;2023-08-17T12:59:49;7.65;;;4.43;;
56267;SDS011;42175;46.930;9.532;2023-08-17T13:02:15;6.65;;;4.75;;
56267;SDS011;42175;46.930;9.532;2023-08-17T13:04:41;16.38;;;4.55;;
56267;SDS011;42175;46.930;9.532;2023-08-17T13:07:07;9.18;;;4.50;;
56267;SDS011;42175;46.930;9.532;2023-08-17T13:09:33;11.20;;;4.53;;
56267;SDS011;42175;46.930;9.532;2023-08-17T13:11:59;8.07;;;4.30;;
56267;SDS011;42175;46.930;9.532;2023-08-17T13:14:25;15.13;;;5.30;;
56267;SDS011;42175;46.930;9.532;2023-08-17T13:16:51;10.60;;;4.85;;
56267;SDS011;42175;46.930;9.532;2023-08-17T13:19:17;16.67;;;5.40;;
56267;SDS011;42175;46.930;9.532;2023-08-17T13:21:43;17.60;;;5.65;;
56267;SDS011;42175;46.930;9.532;2023-08-17T13:24:09;16.70;;;5.63;;
56267;SDS011;42175;46.930;9.532;2023-08-17T13:26:35;11.23;;;5.25;;
56267;SDS011;42175;46.930;9.532;2023-08-17T13:29:01;14.93;;;5.63;;
56267;SDS011;42175;46.930;9.532;2023-08-17T13:31:26;16.90;;;6.25;;
56267;SDS011;42175;46.930;9.532;2023-08-17T13:33:52;17.98;;;6.90;;
56267;SDS011;42175;46.930;9.532;2023-08-17T13:36:18;17.83;;;6.22;;
56267;SDS011;42175;46.930;9.532;2023-08-17T13:38:44;26.00;;;7.40;;
56267;SDS011;42175;46.930;9.532;2023-08-17T13:41:11;15.20;;;5.65;;
56267;SDS011;42175;46.930;9.532;2023-08-17T13:43:37;13.48;;;5.55;;
56267;SDS011;42175;46.930;9.532;2023-08-17T13:46:02;15.30;;;5.22;;
56267;SDS011;42175;46.930;9.532;2023-08-17T13:48:29;16.48;;;6.28;;
56267;SDS011;42175;46.930;9.532;2023-08-17T13:50:55;14.60;;;6.45;;
56267;SDS011;42175;46.930;9.532;2023-08-17T13:53:20;14.45;;;5.85;;
56267;SDS011;42175;46.930;9.532;2023-08-17T13:55:46;20.88;;;6.00;;
56267;SDS011;42175;46.930;9.532;2023-08-17T13:58:12;18.40;;;5.63;;
56267;SDS011;42175;46.930;9.532;2023-08-17T14:00:38;11.35;;;5.82;;
56267;SDS011;42175;46.930;9.532;2023-08-17T14:03:04;13.35;;;5.60;;
56267;SDS011;42175;46.930;9.532;2023-08-17T14:05:31;13.70;;;5.45;;
56267;SDS011;42175;46.930;9.532;2023-08-17T14:07:57;12.50;;;5.03;;
56267;SDS011;42175;46.930;9.532;2023-08-17T14:10:22;11.77;;;5.20;;
56267;SDS011;42175;46.930;9.532;2023-08-17T14:12:48;20.67;;;6.30;;
56267;SDS011;42175;46.930;9.532;2023-08-17T14:15:14;11.32;;;5.57;;
56267;SDS011;42175;46.930;9.532;2023-08-17T14:17:40;13.63;;;5.80;;
56267;SDS011;42175;46.930;9.532;2023-08-17T14:20:05;12.50;;;5.47;;
56267;SDS011;42175;46.930;9.532;2023-08-17T14:22:33;9.73;;;5.03;;
56267;SDS011;42175;46.930;9.532;2023-08-17T14:24:59;14.95;;;5.55;;
56267;SDS011;42175;46.930;9.532;2023-08-17T14:27:25;11.70;;;5.28;;
56267;SDS011;42175;46.930;9.532;2023-08-17T14:29:50;15.32;;;4.95;;
56267;SDS011;42175;46.930;9.532;2023-08-17T14:32:16;11.95;;;5.50;;
56267;SDS011;42175;46.930;9.532;2023-08-17T14:34:42;13.60;;;5.25;;
56267;SDS011;42175;46.930;9.532;2023-08-17T14:37:08;8.60;;;4.82;;
56267;SDS011;42175;46.930;9.532;2023-08-17T14:39:34;11.93;;;5.03;;
56267;SDS011;42175;46.930;9.532;2023-08-17T14:41:59;13.60;;;5.10;;
56267;SDS011;42175;46.930;9.532;2023-08-17T14:44:25;12.50;;;5.18;;
56267;SDS011;42175;46.930;9.532;2023-08-17T14:46:51;11.63;;;4.43;;
56267;SDS011;42175;46.930;9.532;2023-08-17T14:49:17;15.55;;;4.93;;
56267;SDS011;42175;46.930;9.532;2023-08-17T14:51:42;14.18;;;4.97;;